createdAt,value
2017-08-14T00:02:24.261Z,5.80
2017-08-14T00:04:51.791Z,5.55
2017-08-14T00:07:19.329Z,6.15
2017-08-14T00:09:46.838Z,5.53
2017-08-14T00:12:14.373Z,6.05
2017-08-14T00:14:41.888Z,6.10
2017-08-14T00:17:10.202Z,5.97
2017-08-14T00:19:37.730Z,5.55
2017-08-14T00:22:06.029Z,5.45
2017-08-14T00:24:33.550Z,4.40
2017-08-14T00:27:01.099Z,5.12
2017-08-14T00:29:28.620Z,5.37
2017-08-14T00:31:56.163Z,5.10
2017-08-14T00:34:23.721Z,5.70
2017-08-14T00:36:51.253Z,7.43
2017-08-14T00:39:19.572Z,5.65
2017-08-14T00:41:47.084Z,5.80
2017-08-14T00:44:15.396Z,5.65
2017-08-14T00:46:42.910Z,6.00
2017-08-14T00:49:10.447Z,5.75
2017-08-14T00:51:37.964Z,5.57
2017-08-14T00:54:05.505Z,6.93
2017-08-14T00:56:33.790Z,7.25
2017-08-14T00:59:01.320Z,6.53
2017-08-14T01:01:29.641Z,6.35
2017-08-14T01:03:57.165Z,6.60
2017-08-14T01:06:25.487Z,6.85
2017-08-14T01:08:53.107Z,5.50
2017-08-14T01:11:21.403Z,6.30
2017-08-14T01:13:48.922Z,6.30
2017-08-14T01:16:16.479Z,6.40
2017-08-14T01:18:44.028Z,5.15
2017-08-14T01:21:11.573Z,5.50
2017-08-14T01:23:39.121Z,5.12
2017-08-14T01:26:06.668Z,5.17
2017-08-14T01:28:34.234Z,5.28
2017-08-14T01:31:01.757Z,6.00
2017-08-14T01:33:30.065Z,5.35
2017-08-14T01:35:57.592Z,5.45
2017-08-14T01:38:25.917Z,5.65
2017-08-14T01:40:53.440Z,5.90
2017-08-14T01:43:20.980Z,5.57
2017-08-14T01:45:48.509Z,5.78
2017-08-14T01:48:16.097Z,5.62
2017-08-14T01:50:44.861Z,5.72
2017-08-14T01:53:12.385Z,5.40
2017-08-14T01:55:39.929Z,5.35
2017-08-14T01:58:07.805Z,4.87
2017-08-14T02:00:35.357Z,5.37
2017-08-14T02:03:02.884Z,5.30
2017-08-14T02:05:30.440Z,5.00
2017-08-14T02:07:57.968Z,6.35
2017-08-14T02:10:25.509Z,5.80
2017-08-14T02:12:53.036Z,6.10
2017-08-14T02:15:21.341Z,4.90
2017-08-14T02:17:48.867Z,5.72
2017-08-14T02:20:16.423Z,5.20
2017-08-14T02:22:44.713Z,5.45
2017-08-14T02:25:12.237Z,5.53
2017-08-14T02:27:39.778Z,5.68
2017-08-14T02:30:07.302Z,5.45
2017-08-14T02:32:34.844Z,6.10
2017-08-14T02:35:03.126Z,5.78
2017-08-14T02:37:30.670Z,5.15
2017-08-14T02:39:58.960Z,4.75
2017-08-14T02:42:27.316Z,5.32
2017-08-14T02:44:55.608Z,5.55
2017-08-14T02:47:23.920Z,5.43
2017-08-14T02:49:51.437Z,5.50
2017-08-14T02:52:19.748Z,6.30
2017-08-14T02:54:47.273Z,6.78
2017-08-14T02:57:15.594Z,5.87
2017-08-14T02:59:43.112Z,6.72
2017-08-14T03:02:11.437Z,6.40
2017-08-14T03:04:38.973Z,6.20
2017-08-14T03:07:06.508Z,6.60
2017-08-14T03:09:34.822Z,5.65
2017-08-14T03:12:02.345Z,6.07
2017-08-14T03:14:30.653Z,6.10
2017-08-14T03:16:58.169Z,6.28
2017-08-14T03:19:25.709Z,8.00
2017-08-14T03:21:53.250Z,7.55
2017-08-14T03:24:20.803Z,5.45
2017-08-14T03:26:48.325Z,6.70
2017-08-14T03:29:15.862Z,6.85
2017-08-14T03:31:44.150Z,5.85
2017-08-14T03:34:12.468Z,6.07
2017-08-14T03:36:39.983Z,7.03
2017-08-14T03:39:08.302Z,6.85
2017-08-14T03:41:35.828Z,7.53
2017-08-14T03:44:04.225Z,6.87
2017-08-14T03:46:31.740Z,6.57
2017-08-14T03:48:59.259Z,6.85
2017-08-14T03:51:26.796Z,8.32
2017-08-14T03:53:54.329Z,6.57
2017-08-14T03:56:21.881Z,6.75
2017-08-14T03:58:49.411Z,7.28
2017-08-14T04:01:16.957Z,6.68
2017-08-14T04:03:44.481Z,6.72
2017-08-14T04:06:12.045Z,6.45
2017-08-14T04:08:39.565Z,6.25
2017-08-14T04:11:07.100Z,6.40
2017-08-14T04:13:34.625Z,6.30
2017-08-14T04:16:02.180Z,6.12
2017-08-14T04:18:29.712Z,6.07
2017-08-14T04:20:57.288Z,6.32
2017-08-14T04:23:25.304Z,6.05
2017-08-14T04:25:52.829Z,5.80
2017-08-14T04:28:20.379Z,5.80
2017-08-14T04:30:47.899Z,6.37
2017-08-14T04:33:15.462Z,5.72
2017-08-14T04:35:42.973Z,6.62
2017-08-14T04:38:10.515Z,6.80
2017-08-14T04:40:38.034Z,6.80
2017-08-14T04:43:05.578Z,7.00
2017-08-14T04:45:33.094Z,6.85
2017-08-14T04:48:00.633Z,6.55
2017-08-14T04:50:28.161Z,6.30
2017-08-14T04:52:55.704Z,6.15
2017-08-14T04:55:23.226Z,6.25
2017-08-14T04:57:50.743Z,7.72
2017-08-14T05:00:18.280Z,6.25
2017-08-14T05:02:45.797Z,6.05
2017-08-14T05:05:13.333Z,6.12
2017-08-14T05:07:40.859Z,6.40
2017-08-14T05:10:08.411Z,6.43
2017-08-14T05:12:35.921Z,6.28
2017-08-14T05:15:03.449Z,6.43
2017-08-14T05:17:30.961Z,6.72
2017-08-14T05:19:58.497Z,5.80
2017-08-14T05:22:26.022Z,6.15
2017-08-14T05:24:53.561Z,5.73
2017-08-14T05:27:21.072Z,6.70
2017-08-14T05:29:49.373Z,8.07
2017-08-14T05:32:16.886Z,4.47
2017-08-14T05:34:44.428Z,5.30
2017-08-14T05:37:11.940Z,5.17
2017-08-14T05:39:40.254Z,5.87
2017-08-14T05:42:08.618Z,5.97
2017-08-14T05:44:36.135Z,6.13
2017-08-14T05:47:04.450Z,4.73
2017-08-14T05:49:31.965Z,6.20
2017-08-14T05:51:59.501Z,5.77
2017-08-14T05:54:27.010Z,5.43
2017-08-14T05:56:55.322Z,5.50
2017-08-14T05:59:22.842Z,6.00
2017-08-14T06:01:51.148Z,5.57
2017-08-14T06:04:18.652Z,5.60
2017-08-14T06:06:46.350Z,5.53
2017-08-14T06:09:14.717Z,5.33
2017-08-14T06:11:43.008Z,5.10
2017-08-14T06:14:11.459Z,5.23
2017-08-14T06:16:38.989Z,4.80
2017-08-14T06:19:06.513Z,4.70
2017-08-14T06:21:34.045Z,5.70
2017-08-14T06:24:02.323Z,5.30
2017-08-14T06:26:29.836Z,6.47
2017-08-14T06:28:57.376Z,5.10
2017-08-14T06:31:24.908Z,5.20
2017-08-14T06:33:52.440Z,5.50
2017-08-14T06:36:20.750Z,6.47
2017-08-14T06:38:48.303Z,4.23
2017-08-14T06:41:15.804Z,5.40
2017-08-14T06:43:43.339Z,5.10
2017-08-14T06:46:10.857Z,5.43
2017-08-14T06:48:38.401Z,4.70
2017-08-14T06:51:05.910Z,4.43
2017-08-14T06:53:33.452Z,4.70
2017-08-14T06:56:00.979Z,4.27
2017-08-14T06:58:28.521Z,4.80
2017-08-14T07:00:56.046Z,5.93
2017-08-14T07:03:23.607Z,4.30
2017-08-14T07:05:51.117Z,4.20
2017-08-14T07:08:18.644Z,6.13
2017-08-14T07:10:46.182Z,4.63
2017-08-14T07:13:13.707Z,4.43
2017-08-14T07:15:42.013Z,5.50
2017-08-14T07:18:09.531Z,6.30
2017-08-14T07:20:37.078Z,4.63
2017-08-14T07:23:04.603Z,5.93
2017-08-14T07:25:32.133Z,4.63
2017-08-14T07:27:59.653Z,5.27
2017-08-14T07:30:27.192Z,4.87
2017-08-14T07:32:54.706Z,4.60
2017-08-14T07:35:22.263Z,4.20
2017-08-14T07:37:50.548Z,3.73
2017-08-14T07:40:18.085Z,3.83
2017-08-14T07:42:46.361Z,3.50
2017-08-14T07:45:14.668Z,2.83
2017-08-14T07:47:42.184Z,2.63
2017-08-14T07:50:09.738Z,3.90
2017-08-14T07:52:37.299Z,2.80
2017-08-14T07:55:04.814Z,2.73
2017-08-14T07:57:32.352Z,3.00
2017-08-14T07:59:59.861Z,2.60
2017-08-14T08:02:27.408Z,3.50
2017-08-14T08:04:54.926Z,3.53
2017-08-14T08:07:22.461Z,3.47
2017-08-14T08:09:49.985Z,2.90
2017-08-14T08:12:17.531Z,2.90
2017-08-14T08:14:45.072Z,2.90
2017-08-14T08:17:12.618Z,2.43
2017-08-14T08:19:40.129Z,2.67
2017-08-14T08:22:07.642Z,3.30
2017-08-14T08:24:35.189Z,2.70
2017-08-14T08:27:03.480Z,2.40
2017-08-14T08:29:31.056Z,4.47
2017-08-14T08:31:58.569Z,2.63
2017-08-14T08:34:26.875Z,2.53
2017-08-14T08:36:55.387Z,2.33
2017-08-14T08:39:22.926Z,2.60
2017-08-14T08:41:50.448Z,2.60
2017-08-14T08:44:18.758Z,2.53
2017-08-14T08:46:46.273Z,2.70
2017-08-14T08:49:13.818Z,2.30
2017-08-14T08:51:41.333Z,3.07
2017-08-14T08:54:08.876Z,2.57
2017-08-14T08:56:37.163Z,3.33
2017-08-14T08:59:04.681Z,4.10
2017-08-14T09:01:32.207Z,2.30
2017-08-14T09:03:59.718Z,2.87
2017-08-14T09:06:27.258Z,2.20
2017-08-14T09:11:48.049Z,2.87
2017-08-14T09:14:16.359Z,2.77
2017-08-14T09:16:43.918Z,3.17
2017-08-14T09:19:11.490Z,2.87
2017-08-14T09:21:39.051Z,2.80
2017-08-14T09:24:06.605Z,3.47
2017-08-14T09:26:35.036Z,3.20
2017-08-14T09:29:02.621Z,2.50
2017-08-14T09:31:30.490Z,3.67
2017-08-14T09:33:58.031Z,3.80
2017-08-14T09:36:25.591Z,3.57
2017-08-14T09:38:53.133Z,2.80
2017-08-14T09:41:20.781Z,3.13
2017-08-14T09:43:48.330Z,2.93
2017-08-14T09:46:15.917Z,2.70
2017-08-14T09:48:43.450Z,2.40
2017-08-14T09:51:11.345Z,2.33
2017-08-14T09:53:38.905Z,3.07
2017-08-14T09:56:07.229Z,2.47
2017-08-14T09:58:34.980Z,2.60
2017-08-14T10:01:02.962Z,2.23
2017-08-14T10:03:30.535Z,3.87
2017-08-14T10:05:58.080Z,2.97
2017-08-14T10:08:25.638Z,2.30
2017-08-14T10:10:53.952Z,2.40
2017-08-14T10:13:21.492Z,2.57
2017-08-14T10:15:49.837Z,3.03
2017-08-14T10:18:17.379Z,2.57
2017-08-14T10:20:44.934Z,2.43
2017-08-14T10:23:12.472Z,3.30
2017-08-14T10:25:40.036Z,2.53
2017-08-14T10:28:08.340Z,2.30
2017-08-14T10:30:35.895Z,2.53
2017-08-14T10:33:03.474Z,2.87
2017-08-14T10:35:31.038Z,3.07
2017-08-14T10:37:58.610Z,2.20
2017-08-14T10:40:26.157Z,2.13
2017-08-14T10:42:53.741Z,2.20
2017-08-14T10:45:21.292Z,2.40
2017-08-14T10:47:48.895Z,2.40
2017-08-14T10:50:16.479Z,2.10
2017-08-14T10:52:44.814Z,2.50
2017-08-14T10:55:12.352Z,2.93
2017-08-14T10:57:40.718Z,2.60
2017-08-14T11:00:09.042Z,2.20
2017-08-14T11:02:36.593Z,2.20
2017-08-14T11:05:04.126Z,2.80
2017-08-14T11:07:32.449Z,2.50
2017-08-14T11:09:59.986Z,2.13
2017-08-14T11:12:28.322Z,3.50
2017-08-14T11:14:55.854Z,2.17
2017-08-14T11:17:23.424Z,2.93
2017-08-14T11:19:50.964Z,2.47
2017-08-14T11:22:19.282Z,2.67
2017-08-14T11:24:48.016Z,2.67
2017-08-14T11:27:15.685Z,2.33
2017-08-14T11:29:44.001Z,2.17
2017-08-14T11:32:11.555Z,2.10
2017-08-14T11:34:39.876Z,2.13
2017-08-14T11:37:07.410Z,1.90
2017-08-14T11:39:34.963Z,2.33
2017-08-14T11:42:03.251Z,2.03
2017-08-14T11:44:30.837Z,1.77
2017-08-14T11:46:58.370Z,2.10
2017-08-14T11:49:26.696Z,1.60
2017-08-14T11:51:54.222Z,1.93
2017-08-14T11:54:22.553Z,2.00
2017-08-14T11:56:50.103Z,2.63
2017-08-14T11:59:17.694Z,2.00
2017-08-14T12:01:45.224Z,2.03
2017-08-14T12:04:13.496Z,2.30
2017-08-14T12:06:41.056Z,4.03
2017-08-14T12:09:08.587Z,2.47
2017-08-14T12:11:36.139Z,1.90
2017-08-14T12:14:03.680Z,2.23
2017-08-14T12:16:31.239Z,2.00
2017-08-14T12:18:58.774Z,2.03
2017-08-14T12:21:27.149Z,2.30
2017-08-14T12:23:54.681Z,3.77
2017-08-14T12:26:22.249Z,2.53
2017-08-14T12:28:49.806Z,1.90
2017-08-14T12:31:17.368Z,2.17
2017-08-14T12:33:44.899Z,1.87
2017-08-14T12:36:12.485Z,2.00
2017-08-14T12:38:40.027Z,2.30
2017-08-14T12:41:07.581Z,1.90
2017-08-14T12:43:35.122Z,2.23
2017-08-14T12:46:03.419Z,3.93
2017-08-14T12:48:30.987Z,2.17
2017-08-14T12:50:59.467Z,2.13
2017-08-14T12:53:29.543Z,1.70
2017-08-14T12:55:57.907Z,2.10
2017-08-14T12:58:25.611Z,2.17
2017-08-14T13:00:53.664Z,2.37
2017-08-14T13:03:22.071Z,2.23
2017-08-14T13:05:50.424Z,1.67
2017-08-14T13:08:18.365Z,1.70
2017-08-14T13:10:45.963Z,1.83
2017-08-14T13:13:14.970Z,3.43
2017-08-14T13:15:42.591Z,1.80
2017-08-14T13:18:10.202Z,2.30
2017-08-14T13:20:37.825Z,1.67
2017-08-14T13:23:06.353Z,3.57
2017-08-14T13:25:35.826Z,1.90
2017-08-14T13:28:03.482Z,1.70
2017-08-14T13:30:31.937Z,1.83
2017-08-14T13:33:00.681Z,1.60
2017-08-14T13:35:28.330Z,1.50
2017-08-14T13:37:55.913Z,2.53
2017-08-14T13:40:23.514Z,1.50
2017-08-14T13:42:51.082Z,1.23
2017-08-14T13:45:18.706Z,1.37
2017-08-14T13:47:46.600Z,2.47
2017-08-14T13:50:14.175Z,1.50
2017-08-14T13:52:41.713Z,1.90
2017-08-14T13:55:11.082Z,1.40
2017-08-14T13:57:40.420Z,1.80
2017-08-14T14:00:07.978Z,1.83
2017-08-14T14:02:35.544Z,1.40
2017-08-14T14:05:03.084Z,1.57
2017-08-14T14:07:31.416Z,1.73
2017-08-14T14:09:58.967Z,1.70
2017-08-14T14:12:26.523Z,1.30
2017-08-14T14:14:54.059Z,1.13
2017-08-14T14:17:21.615Z,1.60
2017-08-14T14:19:49.160Z,1.50
2017-08-14T14:22:16.752Z,1.50
2017-08-14T14:24:45.040Z,1.50
2017-08-14T14:27:12.604Z,1.77
2017-08-14T14:29:40.908Z,1.50
2017-08-14T14:32:08.462Z,1.50
2017-08-14T14:34:36.026Z,4.47
2017-08-14T14:37:04.379Z,1.43
2017-08-14T14:39:31.933Z,1.60
2017-08-14T14:41:59.512Z,1.67
2017-08-14T14:44:27.060Z,1.67
2017-08-14T14:46:54.618Z,1.63
2017-08-14T14:49:22.183Z,2.67
2017-08-14T14:51:49.728Z,1.57
2017-08-14T14:54:17.294Z,1.20
2017-08-14T14:56:44.818Z,1.50
2017-08-14T14:59:13.166Z,2.23
2017-08-14T15:01:41.265Z,1.20
2017-08-14T15:04:08.838Z,1.17
2017-08-14T15:06:37.150Z,2.27
2017-08-14T15:09:04.705Z,2.03
2017-08-14T15:11:32.249Z,1.60
2017-08-14T15:14:00.597Z,2.17
2017-08-14T15:16:28.145Z,1.73
2017-08-14T15:18:55.684Z,1.50
2017-08-14T15:21:23.284Z,1.90
2017-08-14T15:23:50.815Z,2.20
2017-08-14T15:26:18.378Z,2.27
2017-08-14T15:28:45.923Z,1.77
2017-08-14T15:31:14.248Z,2.80
2017-08-14T15:33:41.779Z,1.50
2017-08-14T15:36:09.332Z,1.63
2017-08-14T15:38:37.645Z,1.60
2017-08-14T15:41:05.233Z,2.40
2017-08-14T15:43:32.767Z,1.93
2017-08-14T15:46:00.326Z,1.40
2017-08-14T15:48:27.885Z,1.60
2017-08-14T15:50:56.207Z,1.63
2017-08-14T15:59:11.585Z,1.20
2017-08-14T16:01:39.137Z,1.40
2017-08-14T16:04:06.709Z,1.60
2017-08-14T16:06:34.273Z,1.50
2017-08-14T16:09:01.832Z,1.60
2017-08-14T16:11:29.404Z,1.50
2017-08-14T16:13:56.957Z,1.93
2017-08-14T16:16:24.502Z,5.80
2017-08-14T16:18:52.101Z,1.53
2017-08-14T16:21:19.668Z,1.80
2017-08-14T16:23:47.227Z,1.47
2017-08-14T16:26:14.789Z,2.73
2017-08-14T16:28:42.409Z,1.70
2017-08-14T16:31:09.964Z,1.80
2017-08-14T16:33:37.522Z,1.80
2017-08-14T16:36:05.089Z,1.93
2017-08-14T16:38:32.680Z,1.90
2017-08-14T16:41:00.208Z,2.10
2017-08-14T16:43:27.787Z,3.67
2017-08-14T16:45:55.301Z,2.70
2017-08-14T16:48:22.873Z,1.67
2017-08-14T16:50:50.413Z,5.80
2017-08-14T16:53:18.740Z,2.50
2017-08-14T16:55:46.287Z,2.03
2017-08-14T16:58:13.845Z,2.20
2017-08-14T17:00:41.413Z,1.77
2017-08-14T17:03:08.942Z,1.60
2017-08-14T17:05:37.262Z,2.10
2017-08-14T17:08:04.834Z,2.20
2017-08-14T17:10:32.412Z,2.17
2017-08-14T17:12:59.963Z,1.93
2017-08-14T17:15:27.786Z,2.30
2017-08-14T17:17:55.344Z,1.57
2017-08-14T17:20:22.888Z,1.63
2017-08-14T17:22:50.564Z,1.83
2017-08-14T17:25:18.231Z,1.60
2017-08-14T17:27:46.133Z,1.87
2017-08-14T17:30:13.708Z,1.73
2017-08-14T17:32:42.030Z,2.17
2017-08-14T17:35:09.576Z,1.83
2017-08-14T17:37:37.133Z,2.03
2017-08-14T17:40:04.669Z,3.03
2017-08-14T17:42:32.217Z,2.30
2017-08-14T17:45:00.546Z,2.83
2017-08-14T17:47:28.093Z,2.10
2017-08-14T17:49:55.623Z,1.57
2017-08-14T17:52:23.170Z,2.07
2017-08-14T17:54:50.738Z,1.80
2017-08-14T17:57:18.297Z,2.07
2017-08-14T17:59:45.855Z,2.70
2017-08-14T18:02:13.422Z,2.03
2017-08-14T18:04:40.947Z,2.40
2017-08-14T18:07:09.274Z,2.30
2017-08-14T18:09:36.850Z,1.83
2017-08-14T18:12:04.832Z,2.70
2017-08-14T18:14:32.414Z,2.23
2017-08-14T18:16:59.985Z,2.53
2017-08-14T18:19:28.685Z,2.83
2017-08-14T18:21:56.247Z,2.70
2017-08-14T18:24:23.800Z,2.70
2017-08-14T18:26:51.333Z,3.57
2017-08-14T18:29:18.887Z,2.60
2017-08-14T18:31:46.435Z,3.60
2017-08-14T18:34:13.994Z,3.33
2017-08-14T18:36:41.553Z,2.90
2017-08-14T18:39:09.079Z,3.17
2017-08-14T18:41:36.632Z,4.97
2017-08-14T18:44:06.079Z,2.93
2017-08-14T18:46:34.408Z,3.87
2017-08-14T18:49:03.548Z,2.70
2017-08-14T18:51:31.887Z,2.97
2017-08-14T18:53:59.411Z,3.90
2017-08-14T18:56:27.771Z,3.30
2017-08-14T18:58:56.154Z,3.27
2017-08-14T19:01:24.494Z,3.60
2017-08-14T19:03:52.070Z,3.17
2017-08-14T19:06:19.626Z,3.10
2017-08-14T19:08:49.026Z,4.13
2017-08-14T19:11:14.802Z,4.80
2017-08-14T19:13:42.673Z,5.57
2017-08-14T19:16:10.229Z,6.43
2017-08-14T19:18:37.755Z,5.33
2017-08-14T19:21:05.341Z,6.07
2017-08-14T19:23:32.898Z,5.70
2017-08-14T19:26:00.458Z,5.83
2017-08-14T19:28:28.015Z,5.40
2017-08-14T19:30:55.573Z,4.53
2017-08-14T19:33:23.204Z,4.83
2017-08-14T19:35:51.541Z,6.43
2017-08-14T19:38:19.070Z,6.20
2017-08-14T19:40:46.604Z,4.93
2017-08-14T19:43:14.175Z,5.73
2017-08-14T19:45:42.481Z,6.00
2017-08-14T19:48:10.061Z,6.30
2017-08-14T19:50:37.602Z,5.03
2017-08-14T19:53:05.953Z,4.30
2017-08-14T19:55:33.585Z,5.10
2017-08-14T19:58:01.148Z,4.40
2017-08-14T20:00:29.820Z,5.07
2017-08-14T20:02:57.356Z,6.23
2017-08-14T20:05:25.678Z,4.33
2017-08-14T20:07:53.324Z,6.40
2017-08-14T20:10:21.642Z,6.20
2017-08-14T20:12:49.191Z,7.07
2017-08-14T20:15:16.749Z,8.70
2017-08-14T20:17:44.288Z,6.70
2017-08-14T20:20:12.718Z,6.20
2017-08-14T20:22:40.267Z,5.13
2017-08-14T20:25:07.810Z,4.53
2017-08-14T20:27:35.354Z,5.37
2017-08-14T20:30:03.687Z,6.20
2017-08-14T20:32:31.231Z,5.70
2017-08-14T20:34:59.398Z,5.30
2017-08-14T20:37:27.934Z,5.97
2017-08-14T20:39:55.482Z,5.37
2017-08-14T20:42:23.154Z,4.40
2017-08-14T20:44:50.737Z,5.00
2017-08-14T20:47:20.204Z,5.17
2017-08-14T20:49:47.795Z,5.77
2017-08-14T20:52:15.321Z,6.57
2017-08-14T20:54:42.875Z,10.47
2017-08-14T20:57:10.430Z,8.73
2017-08-14T20:59:38.276Z,8.70
2017-08-14T21:02:05.828Z,8.80
2017-08-14T21:04:33.353Z,7.80
2017-08-14T21:07:01.696Z,13.80
2017-08-14T21:09:29.242Z,9.27
2017-08-14T21:11:56.798Z,10.80
2017-08-14T21:14:24.333Z,13.67
2017-08-14T21:16:52.148Z,19.43
2017-08-14T21:19:19.687Z,11.50
2017-08-14T21:21:47.245Z,15.93
2017-08-14T21:24:14.810Z,13.50
2017-08-14T21:26:42.359Z,11.13
2017-08-14T21:29:11.008Z,11.03
2017-08-14T21:31:38.564Z,10.53
2017-08-14T21:34:06.117Z,11.23
2017-08-14T21:36:34.537Z,11.80
2017-08-14T21:39:02.388Z,11.47
2017-08-14T21:41:29.959Z,11.33
2017-08-14T21:43:57.494Z,8.93
2017-08-14T21:46:25.037Z,7.70
2017-08-14T21:48:52.585Z,7.47
2017-08-14T21:51:20.922Z,7.83
2017-08-14T21:53:48.463Z,7.13
2017-08-14T21:56:16.023Z,7.47
2017-08-14T21:58:43.567Z,6.30
2017-08-14T22:01:12.147Z,10.53
2017-08-14T22:03:40.461Z,7.23
2017-08-14T22:06:08.012Z,9.97
2017-08-14T22:08:35.583Z,6.07
2017-08-14T22:11:03.124Z,6.10
2017-08-14T22:13:30.692Z,5.33
2017-08-14T22:15:59.003Z,5.77
2017-08-14T22:18:26.555Z,5.30
2017-08-14T22:20:54.093Z,5.00
2017-08-14T22:23:22.405Z,5.90
2017-08-14T22:25:50.176Z,6.07
2017-08-14T22:28:17.872Z,5.30
2017-08-14T22:30:46.406Z,6.33
2017-08-14T22:33:13.994Z,5.60
2017-08-14T22:35:44.335Z,5.70
2017-08-14T22:38:11.897Z,5.90
2017-08-14T22:40:39.453Z,7.40
2017-08-14T22:43:07.031Z,8.10
2017-08-14T22:45:37.653Z,10.02
2017-08-14T22:48:05.255Z,16.13
2017-08-14T22:50:32.968Z,13.83
2017-08-14T22:53:05.550Z,12.93
2017-08-14T22:55:34.654Z,7.50
2017-08-14T22:58:02.901Z,6.80
2017-08-14T23:00:31.722Z,7.77
2017-08-14T23:03:01.612Z,7.00
2017-08-14T23:05:31.836Z,8.20
2017-08-14T23:08:02.787Z,6.80
2017-08-14T23:10:30.798Z,5.87
2017-08-14T23:12:58.616Z,6.43
2017-08-14T23:15:26.183Z,6.13
2017-08-14T23:17:53.725Z,5.40
2017-08-14T23:20:21.286Z,5.25
2017-08-14T23:22:48.887Z,4.15
2017-08-14T23:25:16.430Z,5.20
2017-08-14T23:27:43.978Z,5.20
2017-08-14T23:30:11.529Z,5.20
2017-08-14T23:32:39.101Z,5.10
2017-08-14T23:35:06.660Z,4.87
2017-08-14T23:37:34.212Z,5.93
2017-08-14T23:40:02.530Z,6.30
2017-08-14T23:42:30.073Z,6.47
2017-08-14T23:44:57.605Z,5.83
2017-08-14T23:47:25.951Z,5.95
2017-08-14T23:49:53.485Z,7.05
2017-08-14T23:52:23.119Z,5.45
2017-08-14T23:54:50.743Z,4.87
2017-08-14T23:57:18.310Z,5.05
2017-08-14T23:59:45.912Z,5.43
